Time;durP1;ratioP1;P1;durP2;ratioP2;P2;SDS_P1;SDS_P2;PMS_P1;PMS_P2;Temp;Humidity;BMP_temperature;BMP_pressure;BME280_temperature;BME280_humidity;BME280_pressure;Samples;Min_cycle;Max_cycle;Signal;HPM_P1;HPM_P2
2022/09/15 00:01:09;;;;;;;10.63;3.07;;;14.50;99.90;;;;;;5239580;28;20412;-48
2022/09/15 00:03:40;;;;;;;8.73;3.67;;;14.60;99.90;;;;;;5236238;28;20668;-47
2022/09/15 00:06:11;;;;;;;5.23;3.87;;;14.50;99.90;;;;;;5247017;28;20472;-48
2022/09/15 00:08:42;;;;;;;8.80;3.57;;;14.50;99.90;;;;;;5238677;28;20498;-48
2022/09/15 00:11:19;;;;;;;9.07;4.23;;;14.50;99.90;;;;;;5248404;28;20495;-47
2022/09/15 00:13:51;;;;;;;5.97;4.13;;;14.40;99.90;;;;;;5250869;28;20483;-48
2022/09/15 00:16:23;;;;;;;9.03;4.43;;;14.30;99.90;;;;;;5243980;28;20444;-48
2022/09/15 00:18:54;;;;;;;13.57;4.50;;;14.30;99.90;;;;;;5244214;28;20545;-47
2022/09/15 00:21:29;;;;;;;10.33;3.80;;;14.20;99.90;;;;;;5235533;28;20475;-48
2022/09/15 00:24:00;;;;;;;5.73;3.93;;;14.20;99.90;;;;;;5246335;28;20538;-48
2022/09/15 00:26:31;;;;;;;12.20;4.63;;;14.20;99.90;;;;;;5256767;28;20451;-49
2022/09/15 00:29:02;;;;;;;12.80;4.90;;;14.20;99.90;;;;;;5242687;28;20769;-48
2022/09/15 00:31:33;;;;;;;5.80;3.37;;;14.20;99.90;;;;;;5244590;28;20232;-47
2022/09/15 00:34:04;;;;;;;7.50;4.00;;;14.20;99.90;;;;;;5241819;28;20257;-48
2022/09/15 00:36:34;;;;;;;6.37;3.47;;;14.30;99.90;;;;;;5255172;28;20542;-49
2022/09/15 00:39:05;;;;;;;3.30;3.00;;;14.30;99.90;;;;;;5243002;28;20545;-49
2022/09/15 00:41:38;;;;;;;5.50;4.30;;;14.20;99.90;;;;;;5239703;28;20257;-47
2022/09/15 00:44:15;;;;;;;11.57;4.27;;;14.20;99.90;;;;;;5242420;28;20167;-46
2022/09/15 00:46:50;;;;;;;7.27;3.57;;;14.20;99.90;;;;;;5236211;28;20432;-46
2022/09/15 00:49:23;;;;;;;11.43;3.90;;;14.10;99.90;;;;;;5252840;28;20415;-47
2022/09/15 00:52:30;;;;;;;4.07;2.67;;;14.10;99.90;;;;;;5247419;28;20463;-47
2022/09/15 00:55:30;;;;;;;10.20;3.80;;;14.00;99.90;;;;;;5218152;28;20900;-47
2022/09/15 00:58:05;;;;;;;7.23;2.80;;;14.00;99.90;;;;;;5239758;28;20436;-48
2022/09/15 01:00:38;;;;;;;6.67;2.80;;;13.90;99.90;;;;;;5239502;28;20917;-48
2022/09/15 01:03:09;;;;;;;5.93;3.10;;;13.90;99.90;;;;;;5255564;28;20468;-48
2022/09/15 01:05:44;;;;;;;19.00;4.30;;;13.80;99.90;;;;;;5234063;28;20500;-48
2022/09/15 01:08:26;;;;;;;5.20;4.10;;;13.80;99.90;;;;;;5255381;28;20178;-49
2022/09/15 01:10:58;;;;;;;14.90;3.97;;;13.80;99.90;;;;;;5246937;28;20433;-47
2022/09/15 01:13:29;;;;;;;9.27;5.50;;;13.70;99.90;;;;;;5255586;28;20561;-48
2022/09/15 01:16:25;;;;;;;5.67;4.20;;;13.70;99.90;;;;;;5248578;28;20472;-47
2022/09/15 01:19:10;;;;;;;8.73;5.03;;;13.60;99.90;;;;;;5262703;28;20316;-50
2022/09/15 01:21:53;;;;;;;13.87;3.70;;;13.60;99.90;;;;;;5245279;28;20432;-48
2022/09/15 01:24:30;;;;;;;8.00;4.20;;;13.60;99.90;;;;;;5249762;28;20768;-49
2022/09/15 01:27:01;;;;;;;3.77;3.47;;;13.60;99.90;;;;;;5259160;28;20435;-49
2022/09/15 01:29:59;;;;;;;11.63;3.80;;;13.50;99.90;;;;;;5240821;28;20516;-48
2022/09/15 01:33:04;;;;;;;19.93;4.33;;;13.50;99.90;;;;;;5239470;28;20230;-48
2022/09/15 01:35:49;;;;;;;5.93;3.87;;;13.50;99.90;;;;;;5236566;28;20469;-48
2022/09/15 01:38:23;;;;;;;6.07;3.90;;;13.50;99.90;;;;;;5246434;28;20426;-49
2022/09/15 01:41:10;;;;;;;8.60;3.60;;;13.40;99.90;;;;;;5233437;28;20428;-49
2022/09/15 01:43:48;;;;;;;5.33;3.50;;;13.40;99.90;;;;;;5249320;28;20421;-49
2022/09/15 01:46:22;;;;;;;7.43;4.30;;;13.40;99.90;;;;;;5259151;28;20786;-48
2022/09/15 01:48:54;;;;;;;10.40;4.43;;;13.40;99.90;;;;;;5243816;28;20463;-49
2022/09/15 01:51:27;;;;;;;5.03;3.40;;;13.30;99.90;;;;;;5245086;28;20486;-48
2022/09/15 01:54:01;;;;;;;8.57;3.80;;;13.30;99.90;;;;;;5248062;28;20432;-48
2022/09/15 01:56:32;;;;;;;6.13;3.70;;;13.30;99.90;;;;;;5225478;28;20481;-48
2022/09/15 01:59:02;;;;;;;6.73;3.50;;;13.30;99.90;;;;;;5234961;28;20475;-49
2022/09/15 02:01:48;;;;;;;6.33;3.20;;;13.30;99.90;;;;;;5249010;28;20206;-48
2022/09/15 02:04:54;;;;;;;3.40;3.10;;;13.40;99.90;;;;;;5243286;28;20174;-48
2022/09/15 02:07:43;;;;;;;5.13;3.87;;;13.40;99.90;;;;;;5221085;28;20952;-48
2022/09/15 02:10:28;;;;;;;13.70;5.00;;;13.40;99.90;;;;;;5238747;28;20408;-48
2022/09/15 02:13:27;;;;;;;8.83;4.00;;;13.40;99.90;;;;;;5249068;28;20467;-47
2022/09/15 02:15:59;;;;;;;14.60;4.90;;;13.50;99.90;;;;;;5247175;28;20452;-48
2022/09/15 02:18:44;;;;;;;8.23;4.43;;;13.40;99.90;;;;;;5248183;28;20440;-47
2022/09/15 02:21:19;;;;;;;5.63;3.63;;;13.40;99.90;;;;;;5245070;28;20429;-49
2022/09/15 02:23:56;;;;;;;5.60;3.27;;;13.40;99.90;;;;;;5243509;28;20825;-49
2022/09/15 02:26:29;;;;;;;3.87;2.77;;;13.40;99.90;;;;;;5249366;28;21005;-47
2022/09/15 02:29:04;;;;;;;10.43;3.50;;;13.50;99.90;;;;;;5247690;28;20436;-48
2022/09/15 02:31:38;;;;;;;5.57;3.30;;;13.50;99.90;;;;;;5248502;28;20446;-47
2022/09/15 02:34:20;;;;;;;5.33;2.97;;;13.50;99.90;;;;;;5232422;28;20974;-49
2022/09/15 02:36:52;;;;;;;5.47;3.50;;;13.40;99.90;;;;;;5247858;28;20428;-48
2022/09/15 02:39:30;;;;;;;9.03;3.57;;;13.40;99.90;;;;;;5245281;28;20440;-49
2022/09/15 02:42:02;;;;;;;6.57;3.23;;;13.30;99.90;;;;;;5248946;28;20843;-48
2022/09/15 02:44:33;;;;;;;6.27;3.83;;;13.30;99.90;;;;;;5243702;28;20836;-50
2022/09/15 02:47:07;;;;;;;5.47;3.43;;;13.20;99.90;;;;;;5238822;28;20428;-49
2022/09/15 02:49:37;;;;;;;9.40;4.60;;;13.20;99.90;;;;;;5260959;28;20470;-47
2022/09/15 02:52:08;;;;;;;8.60;3.93;;;13.10;99.90;;;;;;5248508;28;20950;-48
2022/09/15 02:54:38;;;;;;;3.60;3.20;;;13.00;99.90;;;;;;5253088;28;20237;-47
2022/09/15 02:57:09;;;;;;;8.73;3.07;;;13.00;99.90;;;;;;5244427;28;20182;-49
2022/09/15 03:02:29;;;;;;;8.47;3.77;;;13.00;99.90;;;;;;5242674;28;20245;-47
2022/09/15 03:05:00;;;;;;;12.87;4.10;;;13.20;99.90;;;;;;5234414;28;20457;-48
2022/09/15 03:07:31;;;;;;;4.00;3.47;;;13.10;99.90;;;;;;5247963;28;20780;-48
2022/09/15 03:10:01;;;;;;;3.83;3.23;;;13.00;99.90;;;;;;5254382;28;20192;-48
2022/09/15 03:12:43;;;;;;;3.20;2.60;;;12.90;99.90;;;;;;5242234;28;20209;-47
2022/09/15 03:15:17;;;;;;;5.73;3.23;;;12.90;99.90;;;;;;5241459;28;20209;-48
2022/09/15 03:17:48;;;;;;;3.77;3.03;;;12.80;99.90;;;;;;5243114;28;20432;-47
2022/09/15 03:20:22;;;;;;;5.47;3.33;;;12.70;99.90;;;;;;5252603;28;20789;-47
2022/09/15 03:22:53;;;;;;;6.53;3.53;;;12.70;99.90;;;;;;5248165;28;20173;-48
2022/09/15 03:25:25;;;;;;;5.67;3.63;;;12.70;99.90;;;;;;5243963;28;20545;-48
2022/09/15 03:27:57;;;;;;;6.27;3.83;;;12.60;99.90;;;;;;5238904;28;20577;-48
2022/09/15 03:30:27;;;;;;;9.33;4.20;;;12.60;99.90;;;;;;5246381;28;20436;-48
2022/09/15 03:32:58;;;;;;;6.43;3.90;;;12.60;99.90;;;;;;5243424;28;20995;-48
2022/09/15 03:35:28;;;;;;;7.27;5.70;;;12.60;99.90;;;;;;5243550;28;20666;-48
2022/09/15 03:37:59;;;;;;;10.97;5.50;;;12.50;99.90;;;;;;5239252;28;20174;-48
2022/09/15 03:40:29;;;;;;;7.90;5.57;;;12.50;99.90;;;;;;5247905;28;20185;-47
2022/09/15 03:43:00;;;;;;;12.23;4.93;;;12.50;99.90;;;;;;5232286;28;20193;-49
2022/09/15 03:45:30;;;;;;;11.40;4.83;;;12.50;99.90;;;;;;5239850;28;20210;-47
2022/09/15 03:48:01;;;;;;;10.67;5.67;;;12.50;99.90;;;;;;5230927;28;20267;-48
2022/09/15 03:50:33;;;;;;;7.93;5.27;;;12.50;99.90;;;;;;5243721;28;20231;-48
2022/09/15 03:53:03;;;;;;;8.30;5.07;;;12.50;99.90;;;;;;5245038;28;20252;-48
2022/09/15 03:55:34;;;;;;;8.77;5.13;;;12.40;99.90;;;;;;5247532;28;20456;-48
2022/09/15 03:58:05;;;;;;;13.83;5.00;;;12.40;99.90;;;;;;5243099;28;20656;-48
2022/09/15 04:00:35;;;;;;;9.83;6.07;;;12.40;99.90;;;;;;5243899;28;20182;-47
2022/09/15 04:03:09;;;;;;;9.43;5.30;;;12.40;99.90;;;;;;5245864;28;20193;-47
2022/09/15 04:05:41;;;;;;;9.30;4.83;;;12.40;99.90;;;;;;5256288;22;20315;-46
2022/09/15 04:08:12;;;;;;;8.47;4.83;;;12.40;99.90;;;;;;5246132;28;20962;-47
2022/09/15 04:10:42;;;;;;;9.50;5.03;;;12.30;99.90;;;;;;5242298;28;20507;-46
2022/09/15 04:13:13;;;;;;;7.60;4.50;;;12.30;99.90;;;;;;5237581;28;20547;-46
2022/09/15 04:15:43;;;;;;;8.50;4.33;;;12.20;99.90;;;;;;5247108;28;20198;-47
2022/09/15 04:18:14;;;;;;;11.40;4.10;;;12.20;99.90;;;;;;5251859;28;20253;-46
2022/09/15 04:20:44;;;;;;;12.70;4.70;;;12.10;99.90;;;;;;5238265;28;20217;-46
2022/09/15 04:23:15;;;;;;;17.07;5.23;;;12.20;99.90;;;;;;5247133;28;20269;-46
2022/09/15 04:26:00;;;;;;;9.77;4.40;;;12.20;99.90;;;;;;5254032;28;20291;-47
2022/09/15 04:28:33;;;;;;;4.13;3.60;;;12.30;99.90;;;;;;5258799;28;20335;-49
2022/09/15 04:31:13;;;;;;;7.73;4.90;;;12.40;99.90;;;;;;5253518;28;20447;-46
2022/09/15 04:33:48;;;;;;;10.30;4.30;;;12.50;99.90;;;;;;5245631;28;20485;-46
2022/09/15 04:36:21;;;;;;;4.00;3.60;;;12.50;99.90;;;;;;5258219;28;20459;-46
2022/09/15 04:38:52;;;;;;;6.50;4.50;;;12.60;99.90;;;;;;5249457;28;20452;-48
2022/09/15 04:41:24;;;;;;;10.60;4.00;;;12.70;99.90;;;;;;5254610;28;20445;-49
2022/09/15 04:43:55;;;;;;;5.70;3.40;;;12.80;99.90;;;;;;5243067;28;20951;-47
2022/09/15 04:46:25;;;;;;;5.43;3.10;;;12.80;99.90;;;;;;5269002;28;20486;-47
2022/09/15 04:48:56;;;;;;;4.53;4.13;;;12.70;99.90;;;;;;5252996;28;20186;-47
2022/09/15 04:51:26;;;;;;;6.23;4.37;;;12.60;99.90;;;;;;5240851;28;20182;-47
2022/09/15 04:53:57;;;;;;;8.90;3.57;;;12.60;99.90;;;;;;5241906;28;20215;-48
2022/09/15 04:56:29;;;;;;;3.67;3.37;;;12.60;99.90;;;;;;5248118;28;20229;-46
2022/09/15 04:58:59;;;;;;;9.90;3.90;;;12.60;99.90;;;;;;5250306;28;20193;-46
2022/09/15 05:01:33;;;;;;;17.70;3.80;;;12.50;99.90;;;;;;5251111;28;20912;-48
2022/09/15 05:04:03;;;;;;;7.53;3.13;;;12.50;99.90;;;;;;5231897;28;20270;-47
2022/09/15 05:06:35;;;;;;;6.87;3.73;;;12.50;99.90;;;;;;5251047;28;20550;-46
2022/09/15 05:09:07;;;;;;;7.97;3.67;;;12.60;99.90;;;;;;5249491;28;20188;-48
2022/09/15 05:11:39;;;;;;;4.90;3.70;;;12.70;99.90;;;;;;5255795;28;20475;-48
2022/09/15 05:14:10;;;;;;;3.47;3.13;;;12.80;99.90;;;;;;5250891;28;20444;-48
2022/09/15 05:16:41;;;;;;;4.47;4.07;;;13.00;99.90;;;;;;5242974;28;20198;-48
2022/09/15 05:19:11;;;;;;;5.10;4.00;;;13.00;99.90;;;;;;5239035;28;20317;-47
2022/09/15 05:21:42;;;;;;;10.13;3.30;;;12.90;99.90;;;;;;5231188;28;20187;-50
2022/09/15 05:24:12;;;;;;;7.63;3.80;;;13.00;99.90;;;;;;5256159;28;20575;-46
2022/09/15 05:26:43;;;;;;;6.83;4.20;;;13.00;99.90;;;;;;5251164;28;20731;-48
2022/09/15 05:29:14;;;;;;;8.43;4.00;;;13.00;99.90;;;;;;5238330;28;20589;-46
2022/09/15 05:31:44;;;;;;;10.13;3.80;;;13.10;99.90;;;;;;5248238;28;20261;-47
2022/09/15 05:34:15;;;;;;;7.40;4.33;;;13.20;99.90;;;;;;5254287;28;20177;-45
2022/09/15 05:36:46;;;;;;;16.90;4.60;;;13.30;99.90;;;;;;5245185;28;20203;-46
2022/09/15 05:39:16;;;;;;;9.93;3.97;;;13.30;99.90;;;;;;5241324;28;20175;-47
2022/09/15 05:41:47;;;;;;;7.07;3.80;;;13.40;99.90;;;;;;5248701;28;20233;-47
2022/09/15 05:44:20;;;;;;;10.13;3.80;;;13.60;99.90;;;;;;5236240;28;20266;-47
2022/09/15 05:46:51;;;;;;;6.00;3.60;;;13.70;99.90;;;;;;5257740;28;20189;-48
2022/09/15 05:49:22;;;;;;;5.37;3.70;;;13.80;99.90;;;;;;5247872;28;20531;-51
2022/09/15 05:51:52;;;;;;;5.47;3.60;;;14.00;99.90;;;;;;5247665;28;21018;-50
2022/09/15 05:54:23;;;;;;;7.90;3.67;;;14.20;99.90;;;;;;5241163;28;20202;-47
2022/09/15 05:56:54;;;;;;;16.43;4.13;;;14.60;99.90;;;;;;5251536;28;20195;-46
2022/09/15 05:59:24;;;;;;;3.30;3.00;;;15.50;99.90;;;;;;5250680;28;20181;-45
2022/09/15 06:01:55;;;;;;;3.93;2.50;;;17.30;99.90;;;;;;5248910;28;20178;-46
2022/09/15 06:04:25;;;;;;;5.53;2.53;;;18.10;99.90;;;;;;5248085;28;20217;-47
2022/09/15 06:06:56;;;;;;;3.23;2.93;;;18.10;99.90;;;;;;5247522;28;20217;-47
2022/09/15 06:09:27;;;;;;;3.40;2.40;;;18.60;99.90;;;;;;5247934;28;20182;-46
2022/09/15 06:11:57;;;;;;;4.50;2.70;;;19.20;99.90;;;;;;5243927;28;20202;-47
2022/09/15 06:14:28;;;;;;;5.40;3.80;;;19.10;99.90;;;;;;5234004;28;20319;-46
2022/09/15 06:16:58;;;;;;;5.03;3.20;;;18.70;99.90;;;;;;5242909;28;20197;-47
2022/09/15 06:19:29;;;;;;;5.60;3.00;;;18.30;99.90;;;;;;5245461;28;20181;-47
2022/09/15 06:21:59;;;;;;;12.63;3.87;;;17.40;99.90;;;;;;5256617;28;20189;-47
2022/09/15 06:24:30;;;;;;;6.90;3.53;;;16.70;99.90;;;;;;5249790;28;20276;-46
2022/09/15 06:27:00;;;;;;;7.20;3.63;;;16.30;99.90;;;;;;5245048;28;20202;-49
2022/09/15 06:29:31;;;;;;;6.57;3.07;;;16.10;99.90;;;;;;5248976;28;20182;-46
2022/09/15 06:32:02;;;;;;;8.50;3.73;;;17.40;99.90;;;;;;5244077;28;20205;-47
2022/09/15 06:34:32;;;;;;;8.50;2.33;;;19.70;99.90;;;;;;5239886;28;20182;-46
2022/09/15 06:37:03;;;;;;;5.40;3.37;;;20.00;99.90;;;;;;5235914;28;20207;-47
2022/09/15 06:39:34;;;;;;;13.13;3.20;;;19.80;99.90;;;;;;5247736;28;20247;-47
2022/09/15 06:42:04;;;;;;;6.07;2.77;;;19.10;99.90;;;;;;5241398;28;20183;-47
2022/09/15 06:44:35;;;;;;;3.20;2.90;;;18.50;99.90;;;;;;5244261;28;20235;-47
2022/09/15 06:47:06;;;;;;;5.27;2.90;;;17.90;99.90;;;;;;5245905;28;20262;-47
2022/09/15 06:49:36;;;;;;;6.43;3.00;;;17.70;99.90;;;;;;5252350;28;20185;-47
2022/09/15 06:52:07;;;;;;;2.67;2.47;;;17.40;99.90;;;;;;5238996;28;20568;-47
2022/09/15 06:54:37;;;;;;;5.67;3.73;;;17.50;99.90;;;;;;5240732;28;20214;-50
2022/09/15 06:57:08;;;;;;;5.47;3.53;;;17.40;99.90;;;;;;5245343;28;20174;-46
2022/09/15 06:59:39;;;;;;;5.70;3.30;;;17.20;99.90;;;;;;5247874;28;20171;-47
2022/09/15 07:02:09;;;;;;;5.30;2.93;;;17.00;99.90;;;;;;5246938;28;20264;-47
2022/09/15 07:04:40;;;;;;;7.03;4.13;;;16.90;99.90;;;;;;5243087;28;20552;-48
2022/09/15 07:07:10;;;;;;;5.07;2.90;;;16.90;99.90;;;;;;5241363;28;20202;-47
2022/09/15 07:09:41;;;;;;;14.13;3.00;;;16.70;99.90;;;;;;5239125;28;20182;-47
2022/09/15 07:12:11;;;;;;;3.23;2.70;;;16.70;99.90;;;;;;5249738;28;20205;-47
2022/09/15 07:14:42;;;;;;;3.07;2.87;;;16.80;99.90;;;;;;5239709;28;20178;-46
2022/09/15 07:17:12;;;;;;;3.90;2.63;;;16.90;99.90;;;;;;5230585;28;20630;-48
2022/09/15 07:19:44;;;;;;;3.70;2.30;;;16.90;99.90;;;;;;5254781;28;20182;-47
2022/09/15 07:22:14;;;;;;;11.20;2.57;;;16.80;99.90;;;;;;5244827;28;20189;-48
2022/09/15 07:24:45;;;;;;;6.37;3.20;;;16.70;99.90;;;;;;5243724;28;20448;-47
2022/09/15 07:27:15;;;;;;;8.23;2.63;;;16.80;99.90;;;;;;5241423;28;20183;-48
2022/09/15 07:29:46;;;;;;;3.10;2.80;;;17.00;99.90;;;;;;5246804;28;20666;-50
2022/09/15 07:32:16;;;;;;;7.63;2.97;;;16.90;99.90;;;;;;5240288;28;20207;-49
2022/09/15 07:34:47;;;;;;;4.47;2.77;;;17.00;99.90;;;;;;5243901;28;20185;-48
2022/09/15 07:37:18;;;;;;;4.00;2.67;;;16.90;99.90;;;;;;5250629;28;20614;-45
2022/09/15 07:39:49;;;;;;;5.43;3.20;;;16.90;99.90;;;;;;5248343;28;20212;-46
2022/09/15 07:42:19;;;;;;;2.67;2.50;;;17.10;99.90;;;;;;5248823;28;20216;-46
2022/09/15 07:44:50;;;;;;;9.03;2.80;;;17.10;99.90;;;;;;5246754;28;20214;-47
2022/09/15 07:47:20;;;;;;;3.70;2.80;;;17.20;99.90;;;;;;5246685;28;20795;-47
2022/09/15 07:49:51;;;;;;;2.57;2.10;;;17.20;99.90;;;;;;5235320;28;20186;-47
2022/09/15 07:52:22;;;;;;;8.93;3.47;;;17.40;99.90;;;;;;5241055;28;20202;-47
2022/09/15 07:54:52;;;;;;;4.37;2.40;;;17.10;99.90;;;;;;5238759;28;20472;-47
2022/09/15 07:57:23;;;;;;;4.80;2.53;;;17.00;99.90;;;;;;5241394;28;20274;-47
2022/09/15 07:59:55;;;;;;;4.90;2.20;;;17.60;99.90;;;;;;5261276;28;20179;-47
2022/09/15 08:02:25;;;;;;;2.53;2.33;;;18.00;99.90;;;;;;5232041;28;20240;-47
2022/09/15 08:04:56;;;;;;;2.20;2.10;;;17.70;99.90;;;;;;5249281;28;20876;-48
2022/09/15 08:07:27;;;;;;;5.77;2.70;;;17.60;99.90;;;;;;5230049;28;20527;-47
2022/09/15 08:09:58;;;;;;;6.27;2.00;;;17.80;99.90;;;;;;5242234;28;20444;-48
2022/09/15 08:12:30;;;;;;;5.80;2.27;;;18.00;99.90;;;;;;5243547;28;20209;-47
2022/09/15 08:15:01;;;;;;;2.13;1.93;;;18.20;99.90;;;;;;5247176;28;20332;-52
2022/09/15 08:17:33;;;;;;;8.83;3.07;;;18.50;99.90;;;;;;5252533;28;20457;-47
2022/09/15 08:20:04;;;;;;;7.00;2.27;;;19.10;99.90;;;;;;5246633;28;20478;-47
2022/09/15 08:22:34;;;;;;;6.90;2.20;;;19.20;99.90;;;;;;5250093;28;20917;-47
2022/09/15 08:25:05;;;;;;;2.30;2.10;;;19.40;99.90;;;;;;5251037;28;20493;-48
2022/09/15 08:27:36;;;;;;;2.93;1.80;;;18.90;99.90;;;;;;5255056;28;20191;-47
2022/09/15 08:30:07;;;;;;;4.43;2.00;;;18.80;99.90;;;;;;5246681;28;20428;-47
2022/09/15 08:32:38;;;;;;;2.70;1.50;;;18.90;99.90;;;;;;5240723;28;20464;-51
2022/09/15 08:35:08;;;;;;;2.50;1.80;;;18.80;99.90;;;;;;5258408;28;20634;-47
2022/09/15 08:37:39;;;;;;;6.23;2.23;;;18.80;99.90;;;;;;5241969;28;20189;-47
2022/09/15 08:40:24;;;;;;;2.33;1.87;;;18.90;99.90;;;;;;5244946;28;20211;-47
2022/09/15 08:42:58;;;;;;;2.73;2.07;;;18.80;99.90;;;;;;5241465;28;20283;-47
2022/09/15 08:45:43;;;;;;;6.60;2.10;;;19.00;99.90;;;;;;5247994;28;20456;-47
2022/09/15 08:48:19;;;;;;;1.53;1.43;;;19.20;99.90;;;;;;5260137;28;20428;-48
2022/09/15 08:50:54;;;;;;;3.53;1.93;;;19.30;99.90;;;;;;5248812;28;20927;-48
2022/09/15 08:53:37;;;;;;;3.90;2.30;;;19.10;99.90;;;;;;5257632;28;20553;-47
2022/09/15 08:56:16;;;;;;;4.73;2.13;;;19.10;99.90;;;;;;5245564;28;20445;-47
2022/09/15 08:58:47;;;;;;;4.37;2.10;;;19.10;99.90;;;;;;5240886;28;20436;-47
2022/09/15 09:01:54;;;;;;;5.13;3.40;;;19.00;99.90;;;;;;5255237;28;20434;-48
2022/09/15 09:04:37;;;;;;;9.97;2.60;;;18.90;99.90;;;;;;5251837;28;20178;-46
2022/09/15 09:07:21;;;;;;;2.37;1.90;;;18.70;99.90;;;;;;5239969;28;20441;-47
2022/09/15 09:10:01;;;;;;;1.83;1.73;;;18.50;99.90;;;;;;5249064;28;20467;-46
2022/09/15 09:12:56;;;;;;;2.27;1.63;;;18.50;99.90;;;;;;5248980;28;20479;-46
2022/09/15 09:15:39;;;;;;;5.50;2.67;;;18.50;99.90;;;;;;5252194;28;21033;-47
2022/09/15 09:18:31;;;;;;;3.43;1.97;;;18.70;99.90;;;;;;5234470;28;20425;-47
2022/09/15 09:21:08;;;;;;;7.23;1.97;;;18.80;99.90;;;;;;5247538;28;21119;-46
2022/09/15 09:23:47;;;;;;;1.90;1.80;;;18.70;99.90;;;;;;5256503;28;20448;-48
2022/09/15 09:26:18;;;;;;;8.53;2.60;;;18.70;99.90;;;;;;5220931;28;20514;-47
2022/09/15 09:28:57;;;;;;;5.67;2.50;;;18.90;99.90;;;;;;5243006;28;20468;-47
2022/09/15 09:31:28;;;;;;;4.90;2.47;;;19.10;99.90;;;;;;5245541;28;20428;-50
2022/09/15 09:34:14;;;;;;;2.00;1.90;;;19.40;99.90;;;;;;5248883;28;20472;-47
2022/09/15 09:36:53;;;;;;;2.43;1.60;;;19.70;99.90;;;;;;5240645;28;20301;-46
2022/09/15 09:39:26;;;;;;;2.60;1.60;;;20.00;99.90;;;;;;5244617;28;20442;-49
2022/09/15 09:41:58;;;;;;;4.30;1.97;;;20.00;99.40;;;;;;5242183;28;20827;-47
2022/09/15 09:44:32;;;;;;;8.07;2.40;;;20.30;99.30;;;;;;5242167;28;20944;-46
2022/09/15 09:47:03;;;;;;;6.63;2.07;;;20.20;97.60;;;;;;5245226;28;20502;-47
2022/09/15 09:49:37;;;;;;;3.83;1.83;;;20.00;96.70;;;;;;5248987;28;20834;-51
2022/09/15 09:52:08;;;;;;;2.03;1.90;;;19.80;96.20;;;;;;5242502;28;20237;-47
2022/09/15 09:54:40;;;;;;;1.93;1.33;;;19.90;95.80;;;;;;5247876;28;20467;-47
2022/09/15 09:57:27;;;;;;;1.33;1.23;;;19.90;95.00;;;;;;5251794;28;20186;-46
2022/09/15 09:59:57;;;;;;;2.30;1.60;;;19.70;94.60;;;;;;5254545;28;20442;-49
2022/09/15 10:02:28;;;;;;;8.70;1.70;;;19.60;94.90;;;;;;5243075;28;20408;-47
2022/09/15 10:05:01;;;;;;;3.83;2.07;;;19.70;94.90;;;;;;5245318;28;20211;-52
2022/09/15 10:07:33;;;;;;;4.73;1.20;;;19.70;94.50;;;;;;5234605;28;20186;-53
2022/09/15 10:10:04;;;;;;;3.90;1.60;;;20.00;93.70;;;;;;5244965;28;20433;-52
2022/09/15 10:12:40;;;;;;;2.00;1.27;;;20.30;92.40;;;;;;5245002;28;20465;-52
2022/09/15 10:15:23;;;;;;;3.23;1.00;;;20.50;89.30;;;;;;5251657;28;20447;-52
2022/09/15 10:17:55;;;;;;;1.90;1.37;;;20.70;85.90;;;;;;5245945;28;20424;-50
2022/09/15 10:20:45;;;;;;;1.73;1.53;;;20.60;85.40;;;;;;5240512;28;20427;-52
2022/09/15 10:23:15;;;;;;;3.23;1.17;;;20.60;85.00;;;;;;5244604;28;20460;-52
2022/09/15 10:25:47;;;;;;;1.50;1.17;;;20.50;85.30;;;;;;5248025;28;20487;-52
2022/09/15 10:28:24;;;;;;;7.10;1.83;;;20.50;85.60;;;;;;5246416;28;20232;-52
2022/09/15 10:31:14;;;;;;;2.20;1.70;;;20.60;85.10;;;;;;5255236;28;20460;-51
2022/09/15 10:33:46;;;;;;;2.60;1.50;;;20.50;85.70;;;;;;5241845;28;20472;-52
2022/09/15 10:36:22;;;;;;;14.40;1.50;;;20.40;83.60;;;;;;5244217;28;20443;-51
2022/09/15 10:38:57;;;;;;;1.77;1.00;;;20.50;82.30;;;;;;5248146;28;20446;-52
2022/09/15 10:41:34;;;;;;;6.87;1.50;;;20.70;81.90;;;;;;5243078;28;20448;-51
2022/09/15 10:44:17;;;;;;;1.93;1.37;;;20.90;80.90;;;;;;5241413;28;20467;-53
2022/09/15 10:47:00;;;;;;;4.40;1.60;;;21.20;79.10;;;;;;5242293;28;20944;-52
2022/09/15 10:49:51;;;;;;;6.23;3.20;;;21.00;78.30;;;;;;5238140;28;20428;-52
2022/09/15 10:52:49;;;;;;;4.00;2.60;;;20.80;76.50;;;;;;5242869;28;20575;-52
2022/09/15 10:55:49;;;;;;;1.90;1.60;;;20.50;75.80;;;;;;5242727;28;20503;-53
2022/09/15 10:58:22;;;;;;;7.77;1.80;;;20.30;75.70;;;;;;5238363;28;20440;-53
2022/09/15 11:01:14;;;;;;;6.63;1.20;;;19.90;77.90;;;;;;5242783;28;20428;-52
2022/09/15 11:04:03;;;;;;;4.77;1.20;;;19.70;77.10;;;;;;5216029;28;20811;-52
2022/09/15 11:06:45;;;;;;;9.53;1.83;;;19.50;78.80;;;;;;5241877;28;20515;-50
2022/09/15 11:09:42;;;;;;;3.13;1.77;;;19.30;79.50;;;;;;5242909;28;20487;-53
2022/09/15 11:12:30;;;;;;;6.90;2.13;;;19.20;80.90;;;;;;5244526;28;20577;-51
2022/09/15 11:15:24;;;;;;;11.13;2.10;;;19.20;81.50;;;;;;5249221;28;20455;-50
2022/09/15 11:18:12;;;;;;;1.97;1.80;;;19.10;81.70;;;;;;5240805;28;20442;-52
2022/09/15 11:20:57;;;;;;;9.73;3.97;;;18.90;82.10;;;;;;5236843;28;20489;-54
2022/09/15 11:23:28;;;;;;;4.23;1.30;;;18.70;82.00;;;;;;5239305;28;20481;-51
2022/09/15 11:26:28;;;;;;;4.13;2.10;;;18.60;81.90;;;;;;5246404;28;20480;-52
2022/09/15 11:29:10;;;;;;;5.90;1.40;;;18.80;80.70;;;;;;5222883;28;20202;-52
2022/09/15 11:31:45;;;;;;;2.40;1.30;;;18.90;79.80;;;;;;5242053;28;20433;-53
2022/09/15 11:34:41;;;;;;;9.50;1.37;;;19.20;79.00;;;;;;5245540;28;20493;-53
2022/09/15 11:37:17;;;;;;;4.40;1.10;;;19.50;78.50;;;;;;5239303;28;20931;-53
2022/09/15 11:40:16;;;;;;;2.53;1.37;;;19.60;77.40;;;;;;5243869;28;20426;-54
2022/09/15 11:43:05;;;;;;;4.50;1.83;;;19.90;77.20;;;;;;5245641;28;20478;-51
2022/09/15 11:45:42;;;;;;;6.40;2.97;;;20.20;76.00;;;;;;5236977;28;20532;-52
2022/09/15 11:48:18;;;;;;;6.17;3.13;;;20.30;74.10;;;;;;5243866;28;20426;-50
2022/09/15 11:50:53;;;;;;;4.23;2.57;;;20.10;73.90;;;;;;5239103;28;20725;-52
2022/09/15 11:53:38;;;;;;;4.13;2.20;;;19.80;74.30;;;;;;5244318;28;20460;-52
2022/09/15 11:56:14;;;;;;;3.77;1.60;;;19.30;74.10;;;;;;5239278;28;20531;-53
2022/09/15 11:59:18;;;;;;;1.77;1.27;;;18.90;73.70;;;;;;5243974;28;20864;-50
2022/09/15 12:02:17;;;;;;;5.93;1.17;;;18.70;75.00;;;;;;5232335;28;20476;-52
2022/09/15 12:05:16;;;;;;;2.30;1.30;;;18.40;75.70;;;;;;5228526;28;20993;-48
2022/09/15 12:08:03;;;;;;;2.30;1.40;;;18.40;77.20;;;;;;5246336;28;20436;-49
2022/09/15 12:10:42;;;;;;;3.80;1.60;;;18.60;78.00;;;;;;5245709;28;20463;-49
2022/09/15 12:13:19;;;;;;;2.00;1.27;;;18.50;78.00;;;;;;5239675;28;20461;-49
2022/09/15 12:15:51;;;;;;;3.87;1.00;;;18.50;78.40;;;;;;5231979;28;20979;-47
2022/09/15 12:18:31;;;;;;;2.97;1.53;;;18.60;78.90;;;;;;5227268;28;20913;-48
2022/09/15 12:21:18;;;;;;;2.00;1.10;;;18.60;78.90;;;;;;5243189;28;20424;-49
2022/09/15 12:24:15;;;;;;;5.60;3.80;;;18.50;77.70;;;;;;5233131;28;20426;-49
2022/09/15 12:26:46;;;;;;;7.27;3.93;;;18.50;78.30;;;;;;5256644;28;20452;-49
2022/09/15 12:29:26;;;;;;;8.23;3.93;;;18.30;79.70;;;;;;5242405;28;20435;-50
2022/09/15 12:32:16;;;;;;;2.70;2.33;;;18.20;80.10;;;;;;5240617;28;20187;-51
2022/09/15 12:35:19;;;;;;;14.80;8.50;;;18.20;80.80;;;;;;5236956;28;20423;-49
2022/09/15 12:37:56;;;;;;;1.53;1.27;;;18.20;81.20;;;;;;5233840;28;20432;-50
2022/09/15 12:40:29;;;;;;;4.63;2.70;;;18.00;80.80;;;;;;5243015;28;20425;-50
2022/09/15 12:43:11;;;;;;;2.40;1.10;;;18.10;81.20;;;;;;5246420;28;20480;-48
2022/09/15 12:46:03;;;;;;;2.13;1.70;;;18.10;81.60;;;;;;5245752;28;20964;-50
2022/09/15 12:48:35;;;;;;;2.87;1.73;;;18.20;79.30;;;;;;5240321;28;20421;-49
2022/09/15 12:51:09;;;;;;;3.03;1.50;;;18.40;79.30;;;;;;5251974;28;20833;-49
2022/09/15 12:53:52;;;;;;;5.00;2.17;;;18.40;77.90;;;;;;5249098;28;20856;-49
2022/09/15 12:56:26;;;;;;;4.07;2.03;;;18.40;77.80;;;;;;5240342;28;20785;-50
2022/09/15 12:59:05;;;;;;;3.03;1.73;;;18.40;78.70;;;;;;5248377;28;20424;-48
2022/09/15 13:01:49;;;;;;;4.20;1.87;;;18.30;78.90;;;;;;5247960;28;20543;-49
2022/09/15 13:04:25;;;;;;;4.90;2.37;;;18.30;78.80;;;;;;5246282;28;20420;-49
2022/09/15 13:07:14;;;;;;;3.00;2.70;;;18.20;79.00;;;;;;5245090;28;20468;-49
2022/09/15 13:09:57;;;;;;;7.93;1.63;;;18.30;78.20;;;;;;5245135;28;20575;-49
2022/09/15 13:12:36;;;;;;;1.27;0.90;;;18.50;77.00;;;;;;5246941;28;20471;-48
2022/09/15 13:15:13;;;;;;;6.30;1.03;;;18.50;75.60;;;;;;5236919;28;20445;-49
2022/09/15 13:17:46;;;;;;;3.60;2.60;;;18.70;74.80;;;;;;5248629;28;20486;-48
2022/09/15 13:20:24;;;;;;;1.30;1.30;;;18.70;73.70;;;;;;5243633;28;20448;-50
2022/09/15 13:22:56;;;;;;;5.23;2.00;;;18.50;73.40;;;;;;5248759;28;20514;-48
2022/09/15 13:25:29;;;;;;;6.10;1.77;;;18.30;72.60;;;;;;5244004;28;20447;-48
2022/09/15 13:28:01;;;;;;;3.60;1.33;;;18.30;72.90;;;;;;5247441;28;20494;-49
2022/09/15 13:31:04;;;;;;;3.57;1.90;;;18.40;72.60;;;;;;5257418;28;20516;-49
2022/09/15 13:34:12;;;;;;;3.03;1.20;;;18.50;72.30;;;;;;5242470;28;20460;-48